sensor_id;sensor_type;location;lat;lon;timestamp;pressure;altitude;pressure_sealevel;temperature
15575;BMP180;7888;46.748;8.102;2022-11-20T00:01:19;93644.00;;;11.20
15575;BMP180;7888;46.748;8.102;2022-11-20T00:03:46;93643.00;;;11.30
15575;BMP180;7888;46.748;8.102;2022-11-20T00:06:17;93643.00;;;11.30
15575;BMP180;7888;46.748;8.102;2022-11-20T00:08:45;93654.00;;;11.30
15575;BMP180;7888;46.748;8.102;2022-11-20T00:11:15;93652.00;;;11.10
15575;BMP180;7888;46.748;8.102;2022-11-20T00:13:46;93650.00;;;11.30
15575;BMP180;7888;46.748;8.102;2022-11-20T00:16:15;93641.00;;;11.30
15575;BMP180;7888;46.748;8.102;2022-11-20T00:18:41;93659.00;;;11.30
15575;BMP180;7888;46.748;8.102;2022-11-20T00:21:17;93667.00;;;11.30
15575;BMP180;7888;46.748;8.102;2022-11-20T00:23:43;93669.00;;;11.30
15575;BMP180;7888;46.748;8.102;2022-11-20T00:26:13;93667.00;;;11.30
15575;BMP180;7888;46.748;8.102;2022-11-20T00:28:40;93666.00;;;11.30
15575;BMP180;7888;46.748;8.102;2022-11-20T00:31:10;93672.00;;;11.30
15575;BMP180;7888;46.748;8.102;2022-11-20T00:33:37;93666.00;;;11.30
15575;BMP180;7888;46.748;8.102;2022-11-20T00:36:09;93669.00;;;11.30
15575;BMP180;7888;46.748;8.102;2022-11-20T00:38:36;93657.00;;;11.30
15575;BMP180;7888;46.748;8.102;2022-11-20T00:41:07;93673.00;;;11.20
15575;BMP180;7888;46.748;8.102;2022-11-20T00:43:33;93658.00;;;11.20
15575;BMP180;7888;46.748;8.102;2022-11-20T00:46:05;93674.00;;;11.20
15575;BMP180;7888;46.748;8.102;2022-11-20T00:48:32;93675.00;;;11.20
15575;BMP180;7888;46.748;8.102;2022-11-20T00:50:59;93674.00;;;11.20
15575;BMP180;7888;46.748;8.102;2022-11-20T00:53:25;93644.00;;;11.20
15575;BMP180;7888;46.748;8.102;2022-11-20T00:56:01;93673.00;;;11.20
15575;BMP180;7888;46.748;8.102;2022-11-20T00:58:34;93673.00;;;11.20
15575;BMP180;7888;46.748;8.102;2022-11-20T01:01:10;93679.00;;;11.20
15575;BMP180;7888;46.748;8.102;2022-11-20T01:03:43;93666.00;;;11.20
15575;BMP180;7888;46.748;8.102;2022-11-20T01:06:19;93653.00;;;11.10
15575;BMP180;7888;46.748;8.102;2022-11-20T01:08:47;93679.00;;;11.20
15575;BMP180;7888;46.748;8.102;2022-11-20T01:11:20;93647.00;;;11.20
15575;BMP180;7888;46.748;8.102;2022-11-20T01:13:51;93680.00;;;11.20
15575;BMP180;7888;46.748;8.102;2022-11-20T01:16:21;93686.00;;;11.20
15575;BMP180;7888;46.748;8.102;2022-11-20T01:18:51;93687.00;;;11.20
15575;BMP180;7888;46.748;8.102;2022-11-20T01:21:27;93693.00;;;11.20
15575;BMP180;7888;46.748;8.102;2022-11-20T01:23:53;93688.00;;;11.10
15575;BMP180;7888;46.748;8.102;2022-11-20T01:26:26;93693.00;;;11.10
15575;BMP180;7888;46.748;8.102;2022-11-20T01:28:55;93694.00;;;11.20
15575;BMP180;7888;46.748;8.102;2022-11-20T01:31:25;93698.00;;;11.20
15575;BMP180;7888;46.748;8.102;2022-11-20T01:33:55;93707.00;;;11.20
15575;BMP180;7888;46.748;8.102;2022-11-20T01:36:23;93703.00;;;11.20
15575;BMP180;7888;46.748;8.102;2022-11-20T01:39:16;93709.00;;;11.20
15575;BMP180;7888;46.748;8.102;2022-11-20T01:41:43;93711.00;;;11.20
15575;BMP180;7888;46.748;8.102;2022-11-20T01:44:51;93712.00;;;11.20
15575;BMP180;7888;46.748;8.102;2022-11-20T01:47:43;93709.00;;;11.20
15575;BMP180;7888;46.748;8.102;2022-11-20T01:50:27;93715.00;;;11.10
15575;BMP180;7888;46.748;8.102;2022-11-20T01:53:06;93688.00;;;11.20
15575;BMP180;7888;46.748;8.102;2022-11-20T01:55:37;93723.00;;;11.20
15575;BMP180;7888;46.748;8.102;2022-11-20T01:58:05;93711.00;;;11.20
15575;BMP180;7888;46.748;8.102;2022-11-20T02:00:32;93703.00;;;11.20
15575;BMP180;7888;46.748;8.102;2022-11-20T02:03:04;93713.00;;;11.20
15575;BMP180;7888;46.748;8.102;2022-11-20T02:05:53;93721.00;;;11.00
15575;BMP180;7888;46.748;8.102;2022-11-20T02:08:23;93720.00;;;11.20
15575;BMP180;7888;46.748;8.102;2022-11-20T02:10:49;93724.00;;;11.20
15575;BMP180;7888;46.748;8.102;2022-11-20T02:13:16;93723.00;;;11.20
15575;BMP180;7888;46.748;8.102;2022-11-20T02:16:01;93719.00;;;11.20
15575;BMP180;7888;46.748;8.102;2022-11-20T02:18:29;93724.00;;;11.20
15575;BMP180;7888;46.748;8.102;2022-11-20T02:21:09;93717.00;;;11.20
15575;BMP180;7888;46.748;8.102;2022-11-20T02:26:31;93718.00;;;11.20
15575;BMP180;7888;46.748;8.102;2022-11-20T02:29:00;93719.00;;;11.20
15575;BMP180;7888;46.748;8.102;2022-11-20T02:31:27;93714.00;;;11.20
15575;BMP180;7888;46.748;8.102;2022-11-20T02:33:59;93697.00;;;11.20
15575;BMP180;7888;46.748;8.102;2022-11-20T02:36:28;93706.00;;;11.20
15575;BMP180;7888;46.748;8.102;2022-11-20T02:38:55;93697.00;;;11.20
15575;BMP180;7888;46.748;8.102;2022-11-20T02:41:21;93716.00;;;11.20
15575;BMP180;7888;46.748;8.102;2022-11-20T02:43:47;93718.00;;;11.20
15575;BMP180;7888;46.748;8.102;2022-11-20T02:46:13;93720.00;;;11.30
15575;BMP180;7888;46.748;8.102;2022-11-20T02:48:39;93710.00;;;11.30
15575;BMP180;7888;46.748;8.102;2022-11-20T02:51:05;93721.00;;;11.20
15575;BMP180;7888;46.748;8.102;2022-11-20T02:53:31;93721.00;;;11.20
15575;BMP180;7888;46.748;8.102;2022-11-20T02:55:56;93718.00;;;11.20
15575;BMP180;7888;46.748;8.102;2022-11-20T02:58:22;93721.00;;;11.30
15575;BMP180;7888;46.748;8.102;2022-11-20T03:00:48;93720.00;;;11.20
15575;BMP180;7888;46.748;8.102;2022-11-20T03:03:14;93722.00;;;11.20
15575;BMP180;7888;46.748;8.102;2022-11-20T03:05:40;93724.00;;;11.20
15575;BMP180;7888;46.748;8.102;2022-11-20T03:08:05;93688.00;;;11.20
15575;BMP180;7888;46.748;8.102;2022-11-20T03:10:31;93698.00;;;11.10
15575;BMP180;7888;46.748;8.102;2022-11-20T03:12:57;93718.00;;;11.20
15575;BMP180;7888;46.748;8.102;2022-11-20T03:15:23;93703.00;;;11.20
15575;BMP180;7888;46.748;8.102;2022-11-20T03:17:53;93719.00;;;11.10
15575;BMP180;7888;46.748;8.102;2022-11-20T03:20:19;93714.00;;;11.10
15575;BMP180;7888;46.748;8.102;2022-11-20T03:22:45;93696.00;;;11.10
15575;BMP180;7888;46.748;8.102;2022-11-20T03:25:11;93703.00;;;11.00
15575;BMP180;7888;46.748;8.102;2022-11-20T03:27:37;93716.00;;;11.00
15575;BMP180;7888;46.748;8.102;2022-11-20T03:30:03;93714.00;;;11.10
15575;BMP180;7888;46.748;8.102;2022-11-20T03:32:30;93722.00;;;11.10
15575;BMP180;7888;46.748;8.102;2022-11-20T03:34:56;93717.00;;;11.10
15575;BMP180;7888;46.748;8.102;2022-11-20T03:37:22;93723.00;;;11.10
15575;BMP180;7888;46.748;8.102;2022-11-20T03:39:47;93720.00;;;11.10
15575;BMP180;7888;46.748;8.102;2022-11-20T03:42:13;93721.00;;;11.10
15575;BMP180;7888;46.748;8.102;2022-11-20T03:44:58;93701.00;;;11.10
15575;BMP180;7888;46.748;8.102;2022-11-20T03:47:23;93716.00;;;11.10
15575;BMP180;7888;46.748;8.102;2022-11-20T03:49:49;93725.00;;;11.10
15575;BMP180;7888;46.748;8.102;2022-11-20T03:52:15;93734.00;;;11.10
15575;BMP180;7888;46.748;8.102;2022-11-20T03:54:41;93742.00;;;11.10
15575;BMP180;7888;46.748;8.102;2022-11-20T03:57:07;93737.00;;;11.10
15575;BMP180;7888;46.748;8.102;2022-11-20T03:59:32;93726.00;;;11.10
15575;BMP180;7888;46.748;8.102;2022-11-20T04:01:58;93734.00;;;11.10
15575;BMP180;7888;46.748;8.102;2022-11-20T04:04:24;93735.00;;;11.10
15575;BMP180;7888;46.748;8.102;2022-11-20T04:06:50;93739.00;;;11.10
15575;BMP180;7888;46.748;8.102;2022-11-20T04:09:16;93738.00;;;11.10
15575;BMP180;7888;46.748;8.102;2022-11-20T04:11:42;93730.00;;;11.10
15575;BMP180;7888;46.748;8.102;2022-11-20T04:14:14;93733.00;;;11.10
15575;BMP180;7888;46.748;8.102;2022-11-20T04:16:41;93732.00;;;11.10
15575;BMP180;7888;46.748;8.102;2022-11-20T04:19:14;93728.00;;;11.00
15575;BMP180;7888;46.748;8.102;2022-11-20T04:21:42;93727.00;;;11.00
15575;BMP180;7888;46.748;8.102;2022-11-20T04:24:08;93734.00;;;11.10
15575;BMP180;7888;46.748;8.102;2022-11-20T04:26:36;93731.00;;;11.00
15575;BMP180;7888;46.748;8.102;2022-11-20T04:29:03;93733.00;;;11.00
15575;BMP180;7888;46.748;8.102;2022-11-20T04:31:33;93727.00;;;11.00
15575;BMP180;7888;46.748;8.102;2022-11-20T04:34:01;93729.00;;;11.00
15575;BMP180;7888;46.748;8.102;2022-11-20T04:36:29;93744.00;;;11.00
15575;BMP180;7888;46.748;8.102;2022-11-20T04:39:01;93732.00;;;11.00
15575;BMP180;7888;46.748;8.102;2022-11-20T04:41:31;93745.00;;;11.00
15575;BMP180;7888;46.748;8.102;2022-11-20T04:44:00;93747.00;;;11.00
15575;BMP180;7888;46.748;8.102;2022-11-20T04:46:35;93741.00;;;10.90
15575;BMP180;7888;46.748;8.102;2022-11-20T04:49:01;93747.00;;;11.00
15575;BMP180;7888;46.748;8.102;2022-11-20T04:51:27;93746.00;;;10.90
15575;BMP180;7888;46.748;8.102;2022-11-20T04:53:54;93723.00;;;10.90
15575;BMP180;7888;46.748;8.102;2022-11-20T04:56:20;93744.00;;;10.90
15575;BMP180;7888;46.748;8.102;2022-11-20T04:58:45;93743.00;;;10.90
15575;BMP180;7888;46.748;8.102;2022-11-20T05:01:18;93748.00;;;10.80
15575;BMP180;7888;46.748;8.102;2022-11-20T05:03:45;93736.00;;;10.80
15575;BMP180;7888;46.748;8.102;2022-11-20T05:06:15;93740.00;;;10.80
15575;BMP180;7888;46.748;8.102;2022-11-20T05:08:42;93746.00;;;10.80
15575;BMP180;7888;46.748;8.102;2022-11-20T05:11:20;93722.00;;;10.80
15575;BMP180;7888;46.748;8.102;2022-11-20T05:13:46;93737.00;;;10.80
15575;BMP180;7888;46.748;8.102;2022-11-20T05:16:21;93735.00;;;10.80
15575;BMP180;7888;46.748;8.102;2022-11-20T05:18:49;93739.00;;;10.80
15575;BMP180;7888;46.748;8.102;2022-11-20T05:21:16;93746.00;;;10.70
15575;BMP180;7888;46.748;8.102;2022-11-20T05:23:43;93748.00;;;10.80
15575;BMP180;7888;46.748;8.102;2022-11-20T05:26:28;93745.00;;;10.70
15575;BMP180;7888;46.748;8.102;2022-11-20T05:28:53;93744.00;;;10.80
15575;BMP180;7888;46.748;8.102;2022-11-20T05:31:23;93750.00;;;10.70
15575;BMP180;7888;46.748;8.102;2022-11-20T05:33:49;93753.00;;;10.70
15575;BMP180;7888;46.748;8.102;2022-11-20T05:36:16;93749.00;;;10.70
15575;BMP180;7888;46.748;8.102;2022-11-20T05:38:43;93750.00;;;10.80
15575;BMP180;7888;46.748;8.102;2022-11-20T05:41:15;93750.00;;;10.80
15575;BMP180;7888;46.748;8.102;2022-11-20T05:43:44;93750.00;;;10.80
15575;BMP180;7888;46.748;8.102;2022-11-20T05:46:13;93748.00;;;10.80
15575;BMP180;7888;46.748;8.102;2022-11-20T05:48:41;93753.00;;;10.80
15575;BMP180;7888;46.748;8.102;2022-11-20T05:51:12;93765.00;;;10.70
15575;BMP180;7888;46.748;8.102;2022-11-20T05:53:38;93759.00;;;10.70
15575;BMP180;7888;46.748;8.102;2022-11-20T05:56:13;93755.00;;;10.70
15575;BMP180;7888;46.748;8.102;2022-11-20T05:58:40;93757.00;;;10.70
15575;BMP180;7888;46.748;8.102;2022-11-20T06:01:21;93750.00;;;10.70
15575;BMP180;7888;46.748;8.102;2022-11-20T06:03:47;93752.00;;;10.60
15575;BMP180;7888;46.748;8.102;2022-11-20T06:06:17;93751.00;;;10.70
15575;BMP180;7888;46.748;8.102;2022-11-20T06:08:44;93747.00;;;10.70
15575;BMP180;7888;46.748;8.102;2022-11-20T06:11:12;93723.00;;;10.70
15575;BMP180;7888;46.748;8.102;2022-11-20T06:13:39;93721.00;;;10.70
15575;BMP180;7888;46.748;8.102;2022-11-20T06:16:06;93744.00;;;10.70
15575;BMP180;7888;46.748;8.102;2022-11-20T06:18:32;93745.00;;;10.70
15575;BMP180;7888;46.748;8.102;2022-11-20T06:21:08;93752.00;;;10.60
15575;BMP180;7888;46.748;8.102;2022-11-20T06:23:35;93752.00;;;10.60
15575;BMP180;7888;46.748;8.102;2022-11-20T06:26:10;93749.00;;;10.60
15575;BMP180;7888;46.748;8.102;2022-11-20T06:28:37;93749.00;;;10.60
15575;BMP180;7888;46.748;8.102;2022-11-20T06:31:04;93754.00;;;10.50
15575;BMP180;7888;46.748;8.102;2022-11-20T06:33:31;93744.00;;;10.50
15575;BMP180;7888;46.748;8.102;2022-11-20T06:35:59;93746.00;;;10.50
15575;BMP180;7888;46.748;8.102;2022-11-20T06:38:26;93752.00;;;10.40
15575;BMP180;7888;46.748;8.102;2022-11-20T06:40:53;93757.00;;;10.40
15575;BMP180;7888;46.748;8.102;2022-11-20T06:43:19;93757.00;;;10.40
15575;BMP180;7888;46.748;8.102;2022-11-20T06:45:45;93749.00;;;10.40
15575;BMP180;7888;46.748;8.102;2022-11-20T06:48:11;93756.00;;;10.40
15575;BMP180;7888;46.748;8.102;2022-11-20T06:50:37;93758.00;;;10.40
15575;BMP180;7888;46.748;8.102;2022-11-20T06:53:04;93750.00;;;10.30
15575;BMP180;7888;46.748;8.102;2022-11-20T06:55:31;93752.00;;;10.30
15575;BMP180;7888;46.748;8.102;2022-11-20T06:57:58;93762.00;;;10.30
15575;BMP180;7888;46.748;8.102;2022-11-20T07:00:24;93774.00;;;10.30
15575;BMP180;7888;46.748;8.102;2022-11-20T07:02:50;93774.00;;;10.30
15575;BMP180;7888;46.748;8.102;2022-11-20T07:05:17;93774.00;;;10.20
15575;BMP180;7888;46.748;8.102;2022-11-20T07:07:43;93764.00;;;10.30
15575;BMP180;7888;46.748;8.102;2022-11-20T07:10:10;93762.00;;;10.30
15575;BMP180;7888;46.748;8.102;2022-11-20T07:12:36;93772.00;;;10.30
15575;BMP180;7888;46.748;8.102;2022-11-20T07:15:02;93776.00;;;10.30
15575;BMP180;7888;46.748;8.102;2022-11-20T07:17:28;93789.00;;;10.30
15575;BMP180;7888;46.748;8.102;2022-11-20T07:19:54;93790.00;;;10.30
15575;BMP180;7888;46.748;8.102;2022-11-20T07:22:20;93791.00;;;10.30
15575;BMP180;7888;46.748;8.102;2022-11-20T07:24:47;93788.00;;;10.40
15575;BMP180;7888;46.748;8.102;2022-11-20T07:27:14;93786.00;;;10.40
15575;BMP180;7888;46.748;8.102;2022-11-20T07:29:39;93773.00;;;10.40
15575;BMP180;7888;46.748;8.102;2022-11-20T07:32:05;93765.00;;;10.40
15575;BMP180;7888;46.748;8.102;2022-11-20T07:34:31;93791.00;;;10.50
15575;BMP180;7888;46.748;8.102;2022-11-20T07:36:57;93794.00;;;10.50
15575;BMP180;7888;46.748;8.102;2022-11-20T07:39:23;93792.00;;;10.50
15575;BMP180;7888;46.748;8.102;2022-11-20T07:41:48;93813.00;;;10.50
15575;BMP180;7888;46.748;8.102;2022-11-20T07:44:14;93804.00;;;10.50
15575;BMP180;7888;46.748;8.102;2022-11-20T07:46:40;93801.00;;;10.50
15575;BMP180;7888;46.748;8.102;2022-11-20T07:49:06;93805.00;;;10.60
15575;BMP180;7888;46.748;8.102;2022-11-20T07:51:32;93789.00;;;10.60
15575;BMP180;7888;46.748;8.102;2022-11-20T07:53:57;93798.00;;;10.60
15575;BMP180;7888;46.748;8.102;2022-11-20T07:56:23;93803.00;;;10.60
15575;BMP180;7888;46.748;8.102;2022-11-20T07:58:49;93791.00;;;10.60
15575;BMP180;7888;46.748;8.102;2022-11-20T08:01:15;93794.00;;;10.60
15575;BMP180;7888;46.748;8.102;2022-11-20T08:03:41;93802.00;;;10.60
15575;BMP180;7888;46.748;8.102;2022-11-20T08:06:07;93807.00;;;10.70
15575;BMP180;7888;46.748;8.102;2022-11-20T08:08:33;93808.00;;;10.70
15575;BMP180;7888;46.748;8.102;2022-11-20T08:10:59;93810.00;;;10.70
15575;BMP180;7888;46.748;8.102;2022-11-20T08:13:44;93807.00;;;10.80
15575;BMP180;7888;46.748;8.102;2022-11-20T08:16:29;93811.00;;;10.80
15575;BMP180;7888;46.748;8.102;2022-11-20T08:18:55;93809.00;;;10.80
15575;BMP180;7888;46.748;8.102;2022-11-20T08:21:21;93809.00;;;10.80
15575;BMP180;7888;46.748;8.102;2022-11-20T08:23:46;93818.00;;;10.80
15575;BMP180;7888;46.748;8.102;2022-11-20T08:26:12;93815.00;;;10.80
15575;BMP180;7888;46.748;8.102;2022-11-20T08:28:38;93814.00;;;10.90
15575;BMP180;7888;46.748;8.102;2022-11-20T08:31:04;93816.00;;;10.90
15575;BMP180;7888;46.748;8.102;2022-11-20T08:33:30;93827.00;;;10.90
15575;BMP180;7888;46.748;8.102;2022-11-20T08:36:03;93829.00;;;10.90
15575;BMP180;7888;46.748;8.102;2022-11-20T08:38:29;93829.00;;;10.90
15575;BMP180;7888;46.748;8.102;2022-11-20T08:41:01;93826.00;;;10.90
15575;BMP180;7888;46.748;8.102;2022-11-20T08:43:46;93822.00;;;11.00
15575;BMP180;7888;46.748;8.102;2022-11-20T08:46:12;93832.00;;;11.00
15575;BMP180;7888;46.748;8.102;2022-11-20T08:48:38;93820.00;;;11.00
15575;BMP180;7888;46.748;8.102;2022-11-20T08:51:04;93833.00;;;11.10
15575;BMP180;7888;46.748;8.102;2022-11-20T08:53:30;93826.00;;;11.10
15575;BMP180;7888;46.748;8.102;2022-11-20T08:55:59;93835.00;;;11.20
15575;BMP180;7888;46.748;8.102;2022-11-20T08:58:26;93825.00;;;11.30
15575;BMP180;7888;46.748;8.102;2022-11-20T09:00:52;93828.00;;;11.40
15575;BMP180;7888;46.748;8.102;2022-11-20T09:03:18;93834.00;;;11.40
15575;BMP180;7888;46.748;8.102;2022-11-20T09:05:44;93832.00;;;11.50
15575;BMP180;7888;46.748;8.102;2022-11-20T09:08:10;93821.00;;;11.60
15575;BMP180;7888;46.748;8.102;2022-11-20T09:10:36;93829.00;;;11.70
15575;BMP180;7888;46.748;8.102;2022-11-20T09:13:05;93821.00;;;11.80
15575;BMP180;7888;46.748;8.102;2022-11-20T09:15:31;93815.00;;;11.90
15575;BMP180;7888;46.748;8.102;2022-11-20T09:18:03;93825.00;;;12.10
15575;BMP180;7888;46.748;8.102;2022-11-20T09:20:32;93827.00;;;12.20
15575;BMP180;7888;46.748;8.102;2022-11-20T09:22:58;93839.00;;;12.40
15575;BMP180;7888;46.748;8.102;2022-11-20T09:25:24;93840.00;;;12.50
15575;BMP180;7888;46.748;8.102;2022-11-20T09:27:59;93817.00;;;12.70
15575;BMP180;7888;46.748;8.102;2022-11-20T09:30:26;93839.00;;;12.90
15575;BMP180;7888;46.748;8.102;2022-11-20T09:32:53;93824.00;;;13.00
15575;BMP180;7888;46.748;8.102;2022-11-20T09:35:19;93844.00;;;13.20
15575;BMP180;7888;46.748;8.102;2022-11-20T09:37:45;93840.00;;;13.20
15575;BMP180;7888;46.748;8.102;2022-11-20T09:40:24;93842.00;;;13.30
15575;BMP180;7888;46.748;8.102;2022-11-20T09:46:20;93840.00;;;13.30
15575;BMP180;7888;46.748;8.102;2022-11-20T09:52:21;93838.00;;;13.50
15575;BMP180;7888;46.748;8.102;2022-11-20T09:54:49;93857.00;;;13.60
15575;BMP180;7888;46.748;8.102;2022-11-20T09:57:22;93855.00;;;13.60
15575;BMP180;7888;46.748;8.102;2022-11-20T09:59:56;93852.00;;;13.70
15575;BMP180;7888;46.748;8.102;2022-11-20T10:05:10;93849.00;;;13.70
15575;BMP180;7888;46.748;8.102;2022-11-20T10:07:52;93835.00;;;13.70
15575;BMP180;7888;46.748;8.102;2022-11-20T10:10:38;93829.00;;;13.60
15575;BMP180;7888;46.748;8.102;2022-11-20T10:30:41;93824.00;;;13.80
15575;BMP180;7888;46.748;8.102;2022-11-20T10:33:21;93815.00;;;13.90
15575;BMP180;7888;46.748;8.102;2022-11-20T10:36:21;93830.00;;;14.00
15575;BMP180;7888;46.748;8.102;2022-11-20T10:39:05;93825.00;;;14.10
15575;BMP180;7888;46.748;8.102;2022-11-20T10:41:41;93832.00;;;14.30
15575;BMP180;7888;46.748;8.102;2022-11-20T10:44:21;93824.00;;;14.40
15575;BMP180;7888;46.748;8.102;2022-11-20T10:47:17;93823.00;;;14.50
15575;BMP180;7888;46.748;8.102;2022-11-20T10:49:53;93820.00;;;14.50
15575;BMP180;7888;46.748;8.102;2022-11-20T10:52:32;93818.00;;;14.50
15575;BMP180;7888;46.748;8.102;2022-11-20T10:58:12;93810.00;;;14.60
15575;BMP180;7888;46.748;8.102;2022-11-20T11:00:39;93795.00;;;14.70
15575;BMP180;7888;46.748;8.102;2022-11-20T11:03:27;93798.00;;;14.80
15575;BMP180;7888;46.748;8.102;2022-11-20T11:06:08;93804.00;;;15.00
15575;BMP180;7888;46.748;8.102;2022-11-20T11:08:39;93809.00;;;15.30
15575;BMP180;7888;46.748;8.102;2022-11-20T11:11:32;93798.00;;;15.40
15575;BMP180;7888;46.748;8.102;2022-11-20T11:14:07;93801.00;;;15.60
15575;BMP180;7888;46.748;8.102;2022-11-20T11:16:33;93805.00;;;15.80
15575;BMP180;7888;46.748;8.102;2022-11-20T11:19:13;93780.00;;;16.00
15575;BMP180;7888;46.748;8.102;2022-11-20T11:21:55;93779.00;;;16.20
15575;BMP180;7888;46.748;8.102;2022-11-20T11:24:27;93782.00;;;16.40
15575;BMP180;7888;46.748;8.102;2022-11-20T11:27:01;93765.00;;;16.70
15575;BMP180;7888;46.748;8.102;2022-11-20T11:29:32;93763.00;;;17.00
15575;BMP180;7888;46.748;8.102;2022-11-20T11:34:39;93768.00;;;17.80
15575;BMP180;7888;46.748;8.102;2022-11-20T11:37:16;93774.00;;;18.20
15575;BMP180;7888;46.748;8.102;2022-11-20T11:39:44;93769.00;;;18.60
15575;BMP180;7888;46.748;8.102;2022-11-20T11:42:18;93774.00;;;18.90
15575;BMP180;7888;46.748;8.102;2022-11-20T11:44:47;93768.00;;;19.30
15575;BMP180;7888;46.748;8.102;2022-11-20T11:55:56;93750.00;;;20.90
15575;BMP180;7888;46.748;8.102;2022-11-20T11:58:46;93756.00;;;21.10
15575;BMP180;7888;46.748;8.102;2022-11-20T12:01:42;93750.00;;;21.30
15575;BMP180;7888;46.748;8.102;2022-11-20T12:04:43;93741.00;;;21.30
15575;BMP180;7888;46.748;8.102;2022-11-20T12:07:39;93750.00;;;21.30
15575;BMP180;7888;46.748;8.102;2022-11-20T12:10:22;93740.00;;;21.40
15575;BMP180;7888;46.748;8.102;2022-11-20T12:12:54;93746.00;;;21.40
15575;BMP180;7888;46.748;8.102;2022-11-20T12:15:32;93747.00;;;21.30
15575;BMP180;7888;46.748;8.102;2022-11-20T12:17:59;93740.00;;;21.30
15575;BMP180;7888;46.748;8.102;2022-11-20T12:20:47;93722.00;;;21.10
15575;BMP180;7888;46.748;8.102;2022-11-20T12:23:50;93734.00;;;21.10
15575;BMP180;7888;46.748;8.102;2022-11-20T12:26:47;93714.00;;;20.90
15575;BMP180;7888;46.748;8.102;2022-11-20T12:38:26;93706.00;;;20.40
15575;BMP180;7888;46.748;8.102;2022-11-20T12:51:24;93659.00;;;19.50
15575;BMP180;7888;46.748;8.102;2022-11-20T12:54:21;93674.00;;;19.30
15575;BMP180;7888;46.748;8.102;2022-11-20T12:59:53;93663.00;;;19.10
15575;BMP180;7888;46.748;8.102;2022-11-20T13:06:18;93653.00;;;18.60
15575;BMP180;7888;46.748;8.102;2022-11-20T13:08:54;93647.00;;;18.50
15575;BMP180;7888;46.748;8.102;2022-11-20T13:11:34;93641.00;;;18.30
15575;BMP180;7888;46.748;8.102;2022-11-20T13:14:16;93639.00;;;18.10
15575;BMP180;7888;46.748;8.102;2022-11-20T13:17:06;93634.00;;;18.00
15575;BMP180;7888;46.748;8.102;2022-11-20T13:19:31;93642.00;;;17.90
15575;BMP180;7888;46.748;8.102;2022-11-20T13:21:57;93633.00;;;17.70
15575;BMP180;7888;46.748;8.102;2022-11-20T13:24:30;93629.00;;;17.60
15575;BMP180;7888;46.748;8.102;2022-11-20T13:29:36;93625.00;;;17.40
15575;BMP180;7888;46.748;8.102;2022-11-20T13:32:15;93617.00;;;17.10
15575;BMP180;7888;46.748;8.102;2022-11-20T13:34:57;93623.00;;;17.10
15575;BMP180;7888;46.748;8.102;2022-11-20T13:37:34;93615.00;;;16.90
15575;BMP180;7888;46.748;8.102;2022-11-20T13:42:55;93625.00;;;16.70
15575;BMP180;7888;46.748;8.102;2022-11-20T13:45:27;93608.00;;;16.60
15575;BMP180;7888;46.748;8.102;2022-11-20T13:47:55;93596.00;;;16.50
15575;BMP180;7888;46.748;8.102;2022-11-20T13:50:55;93604.00;;;16.40
15575;BMP180;7888;46.748;8.102;2022-11-20T13:53:52;93598.00;;;16.30
15575;BMP180;7888;46.748;8.102;2022-11-20T13:59:58;93607.00;;;16.00
15575;BMP180;7888;46.748;8.102;2022-11-20T14:02:29;93604.00;;;16.00
15575;BMP180;7888;46.748;8.102;2022-11-20T14:04:58;93613.00;;;15.90
15575;BMP180;7888;46.748;8.102;2022-11-20T14:07:36;93614.00;;;15.70
15575;BMP180;7888;46.748;8.102;2022-11-20T14:10:03;93608.00;;;15.70
15575;BMP180;7888;46.748;8.102;2022-11-20T14:12:32;93604.00;;;15.60
15575;BMP180;7888;46.748;8.102;2022-11-20T14:14:59;93616.00;;;15.60
15575;BMP180;7888;46.748;8.102;2022-11-20T14:17:33;93603.00;;;15.50
15575;BMP180;7888;46.748;8.102;2022-11-20T14:20:11;93600.00;;;15.40
15575;BMP180;7888;46.748;8.102;2022-11-20T14:22:38;93598.00;;;15.30
15575;BMP180;7888;46.748;8.102;2022-11-20T14:25:21;93591.00;;;15.20
15575;BMP180;7888;46.748;8.102;2022-11-20T14:27:54;93599.00;;;15.20
15575;BMP180;7888;46.748;8.102;2022-11-20T14:30:36;93572.00;;;15.10
15575;BMP180;7888;46.748;8.102;2022-11-20T14:33:04;93600.00;;;15.10
15575;BMP180;7888;46.748;8.102;2022-11-20T14:35:36;93601.00;;;15.00
15575;BMP180;7888;46.748;8.102;2022-11-20T14:38:12;93607.00;;;15.00
15575;BMP180;7888;46.748;8.102;2022-11-20T14:40:39;93614.00;;;15.00
15575;BMP180;7888;46.748;8.102;2022-11-20T14:43:21;93627.00;;;14.90
15575;BMP180;7888;46.748;8.102;2022-11-20T14:46:05;93618.00;;;14.90
15575;BMP180;7888;46.748;8.102;2022-11-20T14:48:49;93615.00;;;14.80
15575;BMP180;7888;46.748;8.102;2022-11-20T14:51:26;93619.00;;;14.80
15575;BMP180;7888;46.748;8.102;2022-11-20T14:53:52;93607.00;;;14.80
15575;BMP180;7888;46.748;8.102;2022-11-20T14:56:24;93613.00;;;14.70
15575;BMP180;7888;46.748;8.102;2022-11-20T14:58:57;93609.00;;;14.70
15575;BMP180;7888;46.748;8.102;2022-11-20T15:01:28;93611.00;;;14.70
15575;BMP180;7888;46.748;8.102;2022-11-20T15:04:11;93604.00;;;14.60
15575;BMP180;7888;46.748;8.102;2022-11-20T15:06:37;93600.00;;;14.60
15575;BMP180;7888;46.748;8.102;2022-11-20T15:09:12;93593.00;;;14.50
15575;BMP180;7888;46.748;8.102;2022-11-20T15:11:38;93609.00;;;14.50
15575;BMP180;7888;46.748;8.102;2022-11-20T15:14:06;93607.00;;;14.40
15575;BMP180;7888;46.748;8.102;2022-11-20T15:16:33;93598.00;;;14.30
15575;BMP180;7888;46.748;8.102;2022-11-20T15:19:00;93608.00;;;14.20
15575;BMP180;7888;46.748;8.102;2022-11-20T15:21:26;93605.00;;;14.10
15575;BMP180;7888;46.748;8.102;2022-11-20T15:23:52;93599.00;;;14.00
15575;BMP180;7888;46.748;8.102;2022-11-20T15:26:26;93593.00;;;13.90
15575;BMP180;7888;46.748;8.102;2022-11-20T15:28:52;93595.00;;;13.80
15575;BMP180;7888;46.748;8.102;2022-11-20T15:31:22;93592.00;;;13.80
15575;BMP180;7888;46.748;8.102;2022-11-20T15:33:48;93572.00;;;13.70
15575;BMP180;7888;46.748;8.102;2022-11-20T15:36:14;93587.00;;;13.60
15575;BMP180;7888;46.748;8.102;2022-11-20T15:38:40;93586.00;;;13.60
15575;BMP180;7888;46.748;8.102;2022-11-20T15:41:07;93586.00;;;13.50
15575;BMP180;7888;46.748;8.102;2022-11-20T15:43:33;93560.00;;;13.40
15575;BMP180;7888;46.748;8.102;2022-11-20T15:46:13;93584.00;;;13.30
15575;BMP180;7888;46.748;8.102;2022-11-20T15:48:43;93551.00;;;13.20
15575;BMP180;7888;46.748;8.102;2022-11-20T15:53:37;93573.00;;;13.10
15575;BMP180;7888;46.748;8.102;2022-11-20T15:56:03;93581.00;;;13.10
15575;BMP180;7888;46.748;8.102;2022-11-20T15:58:30;93546.00;;;13.00
15575;BMP180;7888;46.748;8.102;2022-11-20T16:00:56;93561.00;;;13.00
15575;BMP180;7888;46.748;8.102;2022-11-20T16:03:22;93532.00;;;13.00
15575;BMP180;7888;46.748;8.102;2022-11-20T16:05:48;93556.00;;;12.90